createdAt,value
2023-05-10T00:02:36.956Z,9.50
2023-05-10T00:05:04.762Z,9.52
2023-05-10T00:07:32.186Z,8.90
2023-05-10T00:09:59.586Z,8.93
2023-05-10T00:12:26.991Z,9.48
2023-05-10T00:14:54.389Z,9.40
2023-05-10T00:17:21.813Z,9.85
2023-05-10T00:19:50.502Z,9.65
2023-05-10T00:22:17.941Z,11.35
2023-05-10T00:24:45.354Z,12.57
2023-05-10T00:27:12.807Z,12.07
2023-05-10T00:32:07.953Z,13.80
2023-05-10T00:34:35.388Z,13.68
2023-05-10T00:37:04.152Z,14.77
2023-05-10T00:39:31.616Z,13.52
2023-05-10T00:41:59.031Z,13.30
2023-05-10T00:44:27.369Z,13.50
2023-05-10T00:46:54.916Z,13.35
2023-05-10T00:49:22.516Z,13.35
2023-05-10T00:51:50.960Z,15.68
2023-05-10T00:54:19.743Z,12.95
2023-05-10T00:56:49.891Z,14.38
2023-05-10T00:59:18.639Z,14.13
2023-05-10T01:01:46.305Z,12.13
2023-05-10T01:04:14.258Z,11.65
2023-05-10T01:09:09.020Z,12.00
2023-05-10T01:11:38.692Z,13.82
2023-05-10T01:14:06.807Z,14.57
2023-05-10T01:16:36.525Z,13.98
2023-05-10T01:19:05.586Z,16.88
2023-05-10T01:21:35.029Z,15.60
2023-05-10T01:24:11.778Z,16.23
2023-05-10T01:27:03.913Z,19.17
2023-05-10T01:30:04.978Z,19.52
2023-05-10T01:32:45.669Z,18.25
2023-05-10T01:35:17.121Z,16.92
2023-05-10T01:37:47.283Z,19.05
2023-05-10T01:40:19.550Z,17.75
2023-05-10T01:42:49.614Z,14.93
2023-05-10T01:45:20.749Z,13.82
2023-05-10T01:47:52.264Z,13.13
2023-05-10T01:50:21.796Z,15.60
2023-05-10T01:52:51.206Z,14.77
2023-05-10T01:55:22.202Z,14.77
2023-05-10T01:57:52.210Z,13.75
2023-05-10T02:00:20.414Z,12.82
2023-05-10T02:02:49.242Z,9.48
2023-05-10T02:05:18.406Z,9.05
2023-05-10T02:07:46.424Z,7.50
2023-05-10T02:10:15.461Z,7.28
2023-05-10T02:12:44.102Z,6.90
2023-05-10T02:15:13.598Z,6.50
2023-05-10T02:17:41.400Z,5.32
2023-05-10T02:20:09.649Z,3.85
2023-05-10T02:22:38.991Z,3.03
2023-05-10T02:25:08.137Z,3.25
2023-05-10T02:27:35.722Z,3.80
2023-05-10T02:30:03.548Z,4.93
2023-05-10T02:32:31.669Z,3.50
2023-05-10T02:34:59.249Z,3.97
2023-05-10T02:37:27.398Z,4.72
2023-05-10T02:39:57.289Z,5.47
2023-05-10T02:42:26.673Z,4.57
2023-05-10T02:44:55.351Z,4.63
2023-05-10T02:47:22.783Z,4.30
2023-05-10T02:49:50.273Z,3.97
2023-05-10T02:52:18.354Z,5.13
2023-05-10T02:54:47.109Z,4.20
2023-05-10T02:57:19.053Z,5.07
2023-05-10T02:59:47.062Z,5.22
2023-05-10T03:02:14.617Z,6.32
2023-05-10T03:04:42.092Z,4.68
2023-05-10T03:07:10.308Z,5.15
2023-05-10T03:09:37.884Z,5.13
2023-05-10T03:12:09.024Z,4.82
2023-05-10T03:14:47.370Z,5.60
2023-05-10T03:17:17.493Z,5.68
2023-05-10T03:19:50.717Z,5.53
2023-05-10T03:22:23.281Z,4.53
2023-05-10T03:24:50.919Z,5.18
2023-05-10T03:27:18.854Z,6.20
2023-05-10T03:29:48.498Z,5.35
2023-05-10T03:32:16.161Z,4.78
2023-05-10T03:34:44.208Z,6.45
2023-05-10T03:37:11.747Z,6.38
2023-05-10T03:39:39.307Z,7.18
2023-05-10T03:42:08.961Z,7.40
2023-05-10T03:44:36.350Z,7.50
2023-05-10T03:47:05.174Z,8.15
2023-05-10T03:49:33.164Z,10.02
2023-05-10T03:54:27.970Z,10.48
2023-05-10T03:56:55.464Z,12.35
2023-05-10T03:59:23.633Z,12.25
2023-05-10T04:01:52.715Z,15.18
2023-05-10T04:04:22.330Z,14.30
2023-05-10T04:06:50.862Z,15.77
2023-05-10T04:09:18.592Z,17.20
2023-05-10T04:11:45.983Z,19.75
2023-05-10T04:14:13.377Z,18.70
2023-05-10T04:16:40.805Z,21.02
2023-05-10T04:19:08.385Z,22.33
2023-05-10T04:21:38.086Z,22.48
2023-05-10T04:24:05.762Z,22.10
2023-05-10T04:26:33.261Z,22.85
2023-05-10T04:29:00.668Z,24.70
2023-05-10T04:31:28.785Z,23.73
2023-05-10T04:33:56.253Z,25.10
2023-05-10T04:36:23.807Z,25.30
2023-05-10T04:38:52.534Z,25.70
2023-05-10T04:41:19.895Z,26.33
2023-05-10T04:43:47.253Z,28.20
2023-05-10T04:46:14.685Z,26.85
2023-05-10T04:48:42.140Z,26.80
2023-05-10T04:51:09.639Z,28.90
2023-05-10T04:53:37.016Z,25.73
2023-05-10T04:56:06.090Z,28.55
2023-05-10T04:58:33.496Z,26.67
2023-05-10T05:01:06.581Z,29.85
2023-05-10T05:03:34.504Z,31.27
2023-05-10T05:06:02.015Z,31.10
2023-05-10T05:08:29.421Z,32.40
2023-05-10T05:10:56.860Z,31.92
2023-05-10T05:13:25.711Z,35.25
2023-05-10T05:15:53.250Z,36.15
2023-05-10T05:18:20.719Z,36.63
2023-05-10T05:20:48.269Z,36.42
2023-05-10T05:23:15.729Z,38.30
2023-05-10T05:25:43.251Z,35.53
2023-05-10T05:28:10.684Z,39.80
2023-05-10T05:30:39.525Z,39.50
2023-05-10T05:33:07.264Z,40.78
2023-05-10T05:35:35.072Z,42.42
2023-05-10T05:38:02.568Z,40.05
2023-05-10T05:40:30.007Z,45.10
2023-05-10T05:42:57.444Z,43.70
2023-05-10T05:45:24.828Z,41.70
2023-05-10T05:47:53.657Z,43.40
2023-05-10T05:50:21.067Z,44.88
2023-05-10T05:52:48.460Z,45.88
2023-05-10T05:55:16.116Z,45.78
2023-05-10T06:00:11.205Z,47.58
2023-05-10T06:02:41.612Z,50.30
2023-05-10T06:05:10.806Z,51.03
2023-05-10T06:07:38.230Z,46.47
2023-05-10T06:10:06.766Z,47.17
2023-05-10T06:12:34.177Z,48.28
2023-05-10T06:15:01.552Z,46.42
2023-05-10T06:17:29.636Z,50.83
2023-05-10T06:19:57.108Z,50.25
2023-05-10T06:22:25.821Z,51.30
2023-05-10T06:24:53.198Z,52.85
2023-05-10T06:27:20.589Z,51.80
2023-05-10T06:29:49.170Z,51.15
2023-05-10T06:32:17.980Z,49.65
2023-05-10T06:34:45.569Z,50.28
2023-05-10T06:37:12.978Z,51.92
2023-05-10T06:39:41.728Z,51.75
2023-05-10T06:42:09.103Z,49.25
2023-05-10T06:44:36.552Z,51.10
2023-05-10T06:47:03.934Z,47.47
2023-05-10T06:49:31.505Z,45.40
2023-05-10T06:51:58.918Z,50.25
2023-05-10T06:54:26.366Z,47.65
2023-05-10T06:56:55.142Z,45.47
2023-05-10T06:59:22.601Z,48.30
2023-05-10T07:01:50.122Z,48.22
2023-05-10T07:04:18.511Z,48.97
2023-05-10T07:06:47.150Z,49.50
2023-05-10T07:09:14.898Z,48.58
2023-05-10T07:11:42.269Z,47.25
2023-05-10T07:14:11.089Z,49.92
2023-05-10T07:16:38.670Z,52.42
2023-05-10T07:19:06.709Z,49.53
2023-05-10T07:24:01.888Z,51.45
2023-05-10T07:26:29.340Z,55.53
2023-05-10T07:28:56.733Z,55.35
2023-05-10T07:31:25.603Z,48.78
2023-05-10T07:33:53.034Z,52.72
2023-05-10T07:36:20.689Z,47.03
2023-05-10T07:38:48.152Z,46.42
2023-05-10T07:41:15.552Z,44.85
2023-05-10T07:43:43.001Z,45.83
2023-05-10T07:46:11.756Z,45.20
2023-05-10T07:48:40.484Z,41.17
2023-05-10T07:51:10.250Z,42.95
2023-05-10T07:53:37.677Z,41.67
2023-05-10T07:56:19.982Z,41.88
2023-05-10T07:58:47.392Z,41.20
2023-05-10T08:01:14.946Z,43.00
2023-05-10T08:03:43.780Z,43.30
2023-05-10T08:06:11.369Z,45.13
2023-05-10T08:08:38.820Z,43.67
2023-05-10T08:11:06.273Z,42.83
2023-05-10T08:13:33.709Z,42.22
2023-05-10T08:16:01.557Z,39.88
2023-05-10T08:20:57.863Z,34.90
2023-05-10T08:23:25.333Z,37.55
2023-05-10T08:25:52.733Z,40.50
2023-05-10T08:28:20.121Z,43.78
2023-05-10T08:30:47.604Z,44.45
2023-05-10T08:33:15.161Z,47.88
2023-05-10T08:35:42.677Z,46.88
2023-05-10T08:38:11.410Z,44.75
2023-05-10T08:40:39.094Z,44.28
2023-05-10T08:43:07.826Z,43.17
2023-05-10T08:45:37.318Z,41.20
2023-05-10T08:48:06.881Z,39.35
2023-05-10T08:50:35.718Z,38.28
2023-05-10T08:53:05.768Z,37.60
2023-05-10T08:55:37.570Z,39.85
2023-05-10T08:58:05.504Z,38.78
2023-05-10T09:00:33.030Z,42.55
2023-05-10T09:03:00.724Z,33.50
2023-05-10T09:05:28.414Z,35.05
2023-05-10T09:07:55.904Z,31.08
2023-05-10T09:10:23.508Z,28.88
2023-05-10T09:12:52.348Z,23.42
2023-05-10T09:15:20.893Z,26.75
2023-05-10T09:17:49.066Z,23.52
2023-05-10T09:20:18.207Z,23.52
2023-05-10T09:22:45.836Z,22.08
2023-05-10T09:25:13.791Z,22.52
2023-05-10T09:27:42.276Z,23.92
2023-05-10T09:30:11.494Z,26.90
2023-05-10T09:32:39.797Z,25.27
2023-05-10T09:35:11.206Z,24.13
2023-05-10T09:37:42.241Z,22.80
2023-05-10T09:40:12.982Z,20.85
2023-05-10T09:42:40.827Z,21.88
2023-05-10T09:47:37.556Z,21.10
2023-05-10T09:50:05.598Z,19.85
2023-05-10T09:52:47.335Z,18.95
2023-05-10T09:55:15.021Z,20.77
2023-05-10T10:00:10.895Z,18.83
2023-05-10T10:02:42.640Z,17.35
2023-05-10T10:05:10.457Z,18.05
2023-05-10T10:10:05.781Z,17.52
2023-05-10T10:12:33.214Z,19.33
2023-05-10T10:15:02.112Z,18.27
2023-05-10T10:17:30.426Z,19.23
2023-05-10T10:19:59.552Z,20.30
2023-05-10T10:22:27.097Z,21.90
2023-05-10T10:24:55.935Z,19.45
2023-05-10T10:27:27.111Z,18.90
2023-05-10T10:30:00.784Z,17.55
2023-05-10T10:32:31.926Z,15.82
2023-05-10T10:35:02.157Z,14.63
2023-05-10T10:37:45.035Z,14.73
2023-05-10T10:40:25.365Z,13.73
2023-05-10T10:42:52.903Z,12.98
2023-05-10T10:45:20.812Z,16.52
2023-05-10T10:52:46.501Z,26.33
2023-05-10T10:55:15.219Z,27.33
2023-05-10T10:57:47.130Z,27.45
2023-05-10T11:00:30.128Z,25.30
2023-05-10T11:03:01.384Z,23.35
2023-05-10T11:05:46.492Z,23.15
2023-05-10T11:08:17.082Z,23.02
2023-05-10T11:10:52.919Z,23.67
2023-05-10T11:13:29.258Z,25.38
2023-05-10T11:15:57.961Z,24.73
2023-05-10T11:18:26.359Z,22.00
2023-05-10T11:20:54.360Z,22.10
2023-05-10T11:23:24.121Z,20.52
2023-05-10T11:25:51.677Z,19.30
2023-05-10T11:28:19.944Z,19.92
2023-05-10T11:30:47.574Z,18.40
2023-05-10T11:33:18.695Z,15.95
2023-05-10T11:35:46.084Z,14.77
2023-05-10T11:38:14.218Z,15.00
2023-05-10T11:40:43.446Z,17.05
2023-05-10T11:43:12.099Z,19.95
2023-05-10T11:45:40.000Z,21.75
2023-05-10T11:48:07.465Z,22.33
2023-05-10T11:50:34.898Z,25.73
2023-05-10T11:53:02.336Z,26.73
2023-05-10T11:55:31.113Z,30.65
2023-05-10T11:58:03.514Z,29.75
2023-05-10T12:00:31.411Z,33.97
2023-05-10T12:02:59.062Z,34.00
2023-05-10T12:05:26.649Z,31.80
2023-05-10T12:07:54.063Z,29.45
2023-05-10T12:10:27.407Z,26.35
2023-05-10T12:12:54.844Z,28.23
2023-05-10T12:15:24.281Z,26.88
2023-05-10T12:17:52.396Z,25.77
2023-05-10T12:20:21.353Z,26.88
2023-05-10T12:22:49.397Z,21.45
2023-05-10T12:25:17.540Z,17.88
2023-05-10T12:27:49.977Z,17.58
2023-05-10T12:30:20.812Z,17.80
2023-05-10T12:32:49.657Z,16.40
2023-05-10T12:35:17.500Z,16.38
2023-05-10T12:37:45.072Z,15.93
2023-05-10T12:40:12.912Z,16.92
2023-05-10T12:45:09.468Z,14.75
2023-05-10T12:47:37.026Z,15.02
2023-05-10T12:50:06.429Z,16.23
2023-05-10T12:52:34.000Z,16.67
2023-05-10T12:55:01.672Z,15.23
2023-05-10T12:57:29.409Z,17.25
2023-05-10T12:59:57.034Z,15.40
2023-05-10T13:02:24.541Z,15.55
2023-05-10T13:04:52.403Z,14.70
2023-05-10T13:07:21.196Z,14.82
2023-05-10T13:09:48.631Z,14.73
2023-05-10T13:12:16.117Z,12.50
2023-05-10T13:14:43.599Z,16.02
2023-05-10T13:17:11.104Z,16.38
2023-05-10T13:19:38.578Z,15.90
2023-05-10T13:22:06.228Z,15.88
2023-05-10T13:24:34.976Z,18.25
2023-05-10T13:27:02.429Z,18.10
2023-05-10T13:29:29.836Z,17.75
2023-05-10T13:31:57.329Z,17.35
2023-05-10T13:34:25.186Z,15.38
2023-05-10T13:36:53.814Z,15.85
2023-05-10T13:39:22.248Z,14.63
2023-05-10T13:41:50.958Z,14.13
2023-05-10T13:44:18.411Z,13.10
2023-05-10T13:46:46.044Z,11.95
2023-05-10T13:49:13.546Z,11.48
2023-05-10T13:51:40.978Z,10.77
2023-05-10T13:54:08.395Z,10.13
2023-05-10T13:56:36.127Z,9.55
2023-05-10T14:01:32.292Z,8.02
2023-05-10T14:03:59.864Z,8.23
2023-05-10T14:08:55.523Z,6.68
2023-05-10T14:11:24.579Z,6.65
2023-05-10T14:13:52.218Z,6.53
2023-05-10T14:16:20.185Z,6.00
2023-05-10T14:18:49.130Z,6.38
2023-05-10T14:21:16.582Z,6.38
2023-05-10T14:23:43.982Z,6.50
2023-05-10T14:26:11.446Z,6.28
2023-05-10T14:28:38.858Z,5.72
2023-05-10T14:31:06.447Z,4.32
2023-05-10T14:33:33.849Z,5.03
2023-05-10T14:36:04.150Z,5.40
2023-05-10T14:38:31.606Z,4.78
2023-05-10T14:40:59.133Z,5.47
2023-05-10T14:43:28.354Z,5.38
2023-05-10T14:45:55.819Z,4.45
2023-05-10T14:48:23.283Z,5.25
2023-05-10T14:50:50.865Z,4.72
2023-05-10T14:53:19.718Z,5.22
2023-05-10T14:55:47.154Z,4.25
2023-05-10T14:58:14.556Z,5.10
2023-05-10T15:00:42.292Z,5.57
2023-05-10T15:03:10.186Z,5.63
2023-05-10T15:05:38.648Z,4.90
2023-05-10T15:08:06.416Z,5.95
2023-05-10T15:13:03.474Z,5.22
2023-05-10T15:15:30.882Z,5.28
2023-05-10T15:17:58.342Z,4.38
2023-05-10T15:20:25.812Z,4.43
2023-05-10T15:22:53.323Z,4.25
2023-05-10T15:25:20.947Z,4.78
2023-05-10T15:27:48.376Z,4.85
2023-05-10T15:30:17.305Z,4.57
2023-05-10T15:32:44.708Z,4.25
2023-05-10T15:35:12.164Z,4.88
2023-05-10T15:37:39.608Z,4.75
2023-05-10T15:40:07.836Z,5.32
2023-05-10T15:42:35.278Z,5.70
2023-05-10T15:45:02.682Z,6.20
2023-05-10T15:47:31.805Z,6.03
2023-05-10T15:49:59.281Z,5.60
2023-05-10T15:52:27.190Z,7.80
2023-05-10T15:54:54.718Z,9.35
2023-05-10T15:57:22.196Z,8.60
2023-05-10T15:59:50.679Z,9.27
2023-05-10T16:02:19.313Z,10.20
2023-05-10T16:04:48.192Z,9.68
2023-05-10T16:07:15.607Z,9.07
2023-05-10T16:09:43.057Z,9.50
2023-05-10T16:12:10.572Z,10.00
2023-05-10T16:14:38.007Z,9.57
2023-05-10T16:17:05.879Z,9.88
2023-05-10T16:19:33.366Z,10.38
2023-05-10T16:22:02.160Z,10.18
2023-05-10T16:24:29.562Z,10.30
2023-05-10T16:26:57.054Z,9.43
2023-05-10T16:29:24.471Z,8.70
2023-05-10T16:31:51.880Z,9.95
2023-05-10T16:34:20.446Z,10.18
2023-05-10T16:36:47.889Z,9.32
2023-05-10T16:39:16.674Z,8.98
2023-05-10T16:41:44.110Z,8.20
2023-05-10T16:44:11.508Z,9.23
2023-05-10T16:46:39.056Z,9.25
2023-05-10T16:49:07.342Z,9.45
2023-05-10T16:51:34.802Z,9.10
2023-05-10T16:54:02.372Z,8.25
2023-05-10T16:56:31.093Z,9.85
2023-05-10T16:58:58.580Z,8.85
2023-05-10T17:01:27.150Z,8.45
2023-05-10T17:03:54.996Z,9.25
2023-05-10T17:06:22.535Z,9.15
2023-05-10T17:08:49.912Z,9.20
2023-05-10T17:11:17.340Z,8.88
2023-05-10T17:13:46.104Z,8.73
2023-05-10T17:16:13.594Z,9.52
2023-05-10T17:18:41.725Z,10.10
2023-05-10T17:21:09.588Z,9.93
2023-05-10T17:26:04.957Z,9.52
2023-05-10T17:28:32.425Z,9.20
2023-05-10T17:31:01.479Z,10.48
2023-05-10T17:33:28.943Z,10.52
2023-05-10T17:35:56.700Z,10.30
2023-05-10T17:38:24.244Z,9.50
2023-05-10T17:40:52.108Z,8.85
2023-05-10T17:45:48.481Z,10.63
2023-05-10T17:48:17.381Z,12.05
2023-05-10T17:50:44.747Z,12.80
2023-05-10T17:53:12.165Z,12.45
2023-05-10T17:55:40.700Z,12.98
2023-05-10T17:58:08.149Z,13.73
2023-05-10T18:00:35.863Z,15.98
2023-05-10T18:03:03.565Z,16.75
2023-05-10T18:05:32.556Z,17.67
2023-05-10T18:08:00.039Z,19.20
2023-05-10T18:10:27.538Z,20.67
2023-05-10T18:12:54.923Z,17.48
2023-05-10T18:15:22.981Z,17.45
2023-05-10T18:17:50.659Z,19.35
2023-05-10T18:20:18.090Z,20.50
2023-05-10T18:22:46.926Z,19.20
2023-05-10T18:25:14.777Z,17.33
2023-05-10T18:27:42.343Z,14.18
2023-05-10T18:30:12.320Z,14.07
2023-05-10T18:32:39.881Z,12.43
2023-05-10T18:35:08.008Z,14.05
2023-05-10T18:37:35.753Z,13.15
2023-05-10T18:40:06.227Z,15.02
2023-05-10T18:42:33.732Z,15.70
2023-05-10T18:45:01.141Z,15.10
2023-05-10T18:47:28.612Z,15.27
2023-05-10T18:49:56.155Z,16.10
2023-05-10T18:52:23.564Z,14.65
2023-05-10T18:54:51.607Z,16.33
2023-05-10T18:59:47.670Z,16.55
2023-05-10T19:02:15.277Z,16.13
2023-05-10T19:04:42.847Z,16.48
2023-05-10T19:07:10.813Z,16.85
2023-05-10T19:09:38.264Z,18.08
2023-05-10T19:12:05.860Z,19.10
2023-05-10T19:14:33.384Z,17.92
2023-05-10T19:17:02.227Z,17.88
2023-05-10T19:19:32.759Z,17.80
2023-05-10T19:22:00.235Z,17.65
2023-05-10T19:24:27.671Z,16.90
2023-05-10T19:26:56.226Z,17.63
2023-05-10T19:29:24.093Z,18.65
2023-05-10T19:34:21.282Z,19.33
2023-05-10T19:36:48.677Z,20.38
2023-05-10T19:39:16.153Z,22.30
2023-05-10T19:41:43.518Z,22.70
2023-05-10T19:44:10.944Z,21.30
2023-05-10T19:46:38.357Z,19.88
2023-05-10T19:49:05.848Z,20.15
2023-05-10T19:51:34.598Z,19.55
2023-05-10T19:54:02.003Z,24.15
2023-05-10T19:56:29.842Z,26.77
2023-05-10T19:58:57.268Z,23.25
2023-05-10T20:01:24.847Z,25.90
2023-05-10T20:03:52.641Z,23.02
2023-05-10T20:06:20.198Z,23.77
2023-05-10T20:08:48.916Z,23.70
2023-05-10T20:11:16.413Z,26.60
2023-05-10T20:13:43.828Z,28.15
2023-05-10T20:16:11.350Z,29.98
2023-05-10T20:18:39.045Z,26.67
2023-05-10T20:21:06.486Z,28.80
2023-05-10T20:23:33.915Z,27.38
2023-05-10T20:26:02.678Z,27.27
2023-05-10T20:28:30.203Z,25.77
2023-05-10T20:30:57.634Z,23.58
2023-05-10T20:33:25.701Z,22.90
2023-05-10T20:35:53.091Z,22.95
2023-05-10T20:38:20.954Z,23.92
2023-05-10T20:43:18.686Z,23.27
2023-05-10T20:45:46.213Z,24.52
2023-05-10T20:48:13.697Z,22.55
2023-05-10T20:50:41.115Z,21.10
2023-05-10T20:53:08.563Z,23.38
2023-05-10T20:55:36.003Z,22.58
2023-05-10T20:58:04.994Z,23.33
2023-05-10T21:00:34.060Z,24.60
2023-05-10T21:03:01.527Z,22.35
2023-05-10T21:05:29.081Z,23.00
2023-05-10T21:07:56.530Z,20.65
2023-05-10T21:10:24.957Z,20.63
2023-05-10T21:12:52.774Z,20.10
2023-05-10T21:15:20.271Z,19.05
2023-05-10T21:17:49.406Z,21.05
2023-05-10T21:20:17.225Z,21.13
2023-05-10T21:22:44.891Z,22.25
2023-05-10T21:25:12.698Z,21.40
2023-05-10T21:27:40.086Z,21.00
2023-05-10T21:30:08.124Z,21.00
2023-05-10T21:32:36.010Z,23.85
2023-05-10T21:37:32.920Z,24.75
2023-05-10T21:40:00.385Z,22.73
2023-05-10T21:42:27.920Z,26.35
2023-05-10T21:44:55.396Z,23.75
2023-05-10T21:47:22.853Z,22.75
2023-05-10T21:49:50.437Z,24.95
2023-05-10T21:52:17.954Z,25.95
2023-05-10T21:54:46.751Z,26.77
2023-05-10T21:57:14.231Z,26.63
2023-05-10T21:59:41.691Z,25.80
2023-05-10T22:02:09.152Z,28.98
2023-05-10T22:04:36.587Z,28.13
2023-05-10T22:07:03.989Z,26.48
2023-05-10T22:09:31.387Z,31.30
2023-05-10T22:12:00.264Z,30.42
2023-05-10T22:14:27.666Z,27.17
2023-05-10T22:16:55.138Z,27.08
2023-05-10T22:19:22.592Z,26.45
2023-05-10T22:21:50.078Z,29.27
2023-05-10T22:24:17.478Z,26.58
2023-05-10T22:26:44.925Z,28.70
2023-05-10T22:29:13.689Z,25.67
2023-05-10T22:31:41.338Z,27.58
2023-05-10T22:34:08.819Z,30.80
2023-05-10T22:36:36.266Z,33.47
2023-05-10T22:39:03.714Z,30.00
2023-05-10T22:41:31.065Z,29.63
2023-05-10T22:43:58.921Z,33.95
2023-05-10T22:46:29.129Z,30.35
2023-05-10T22:48:56.600Z,29.48
2023-05-10T22:51:23.999Z,32.78
2023-05-10T22:53:51.403Z,29.88
2023-05-10T22:56:18.898Z,34.20
2023-05-10T22:58:46.319Z,35.63
2023-05-10T23:01:14.382Z,36.20
2023-05-10T23:03:43.221Z,37.83
2023-05-10T23:06:10.618Z,37.83
2023-05-10T23:08:38.040Z,38.33
2023-05-10T23:11:05.473Z,35.97
2023-05-10T23:13:32.965Z,37.50
2023-05-10T23:16:06.062Z,33.58
2023-05-10T23:18:33.686Z,38.63
2023-05-10T23:21:02.519Z,35.40
2023-05-10T23:23:29.979Z,32.58
2023-05-10T23:25:57.615Z,35.33
2023-05-10T23:28:25.017Z,39.38
2023-05-10T23:30:55.501Z,37.58
2023-05-10T23:33:23.098Z,36.10
2023-05-10T23:35:50.514Z,35.78
2023-05-10T23:38:19.269Z,37.25
2023-05-10T23:40:48.673Z,39.03
2023-05-10T23:43:16.208Z,40.03
2023-05-10T23:45:43.650Z,38.97
2023-05-10T23:48:11.093Z,36.55
2023-05-10T23:50:38.511Z,34.88
2023-05-10T23:53:05.912Z,37.20
2023-05-10T23:55:34.620Z,37.17
2023-05-10T23:58:02.042Z,38.60
